Aviation Digital Data Service (ADDS)

Output produced by METARs form (1715 UTC 24 February 2017)
found at http://aviationweather.gov/adds/metars/
 
KAEX 241120Z 2412/2512 17008KT P6SM BKN015 
     FM241600 21010G15KT P6SM BKN015 
     FM242100 23010G15KT P6SM SCT025 
     FM250300 34010KT P6SM SKC